createdAt,value
2018-07-10T00:02:18.386Z,1.47
2018-07-10T00:07:00.381Z,0.90
2018-07-10T00:09:43.770Z,1.12
2018-07-10T00:12:12.302Z,1.20
2018-07-10T00:14:40.487Z,0.82
2018-07-10T00:17:08.765Z,1.10
2018-07-10T00:19:37.002Z,0.70
2018-07-10T00:22:05.318Z,0.68
2018-07-10T00:24:33.585Z,0.65
2018-07-10T00:27:01.873Z,1.10
2018-07-10T00:29:30.591Z,1.15
2018-07-10T00:31:58.860Z,1.40
2018-07-10T00:34:27.106Z,1.55
2018-07-10T00:36:55.351Z,1.10
2018-07-10T00:39:23.604Z,1.00
2018-07-10T00:41:51.853Z,0.85
2018-07-10T00:44:20.178Z,0.85
2018-07-10T00:46:48.521Z,0.95
2018-07-10T00:49:16.784Z,0.80
2018-07-10T00:51:45.036Z,0.70
2018-07-10T00:54:13.322Z,0.68
2018-07-10T00:56:41.565Z,0.70
2018-07-10T00:59:09.803Z,1.00
2018-07-10T01:01:38.063Z,0.70
2018-07-10T01:04:06.307Z,0.70
2018-07-10T01:06:34.560Z,0.60
2018-07-10T01:09:02.844Z,0.60
2018-07-10T01:11:31.082Z,0.80
2018-07-10T01:13:59.334Z,1.02
2018-07-10T01:16:37.045Z,0.70
2018-07-10T01:19:11.578Z,0.82
2018-07-10T01:21:41.789Z,0.75
2018-07-10T01:24:10.256Z,0.75
2018-07-10T01:26:40.365Z,1.50
2018-07-10T01:29:21.299Z,0.62
2018-07-10T01:31:51.896Z,0.78
2018-07-10T01:34:20.372Z,0.80
2018-07-10T01:36:49.060Z,0.80
2018-07-10T01:39:17.644Z,0.93
2018-07-10T01:41:45.880Z,0.78
2018-07-10T01:44:14.211Z,0.53
2018-07-10T01:46:42.457Z,0.50
2018-07-10T01:49:10.690Z,0.70
2018-07-10T01:51:38.915Z,0.45
2018-07-10T01:54:07.174Z,0.75
2018-07-10T01:56:35.436Z,0.47
2018-07-10T01:59:03.690Z,0.55
2018-07-10T02:01:32.127Z,0.53
2018-07-10T02:04:01.642Z,0.85
2018-07-10T02:06:29.983Z,0.45
2018-07-10T02:08:59.029Z,0.40
2018-07-10T02:11:27.297Z,0.33
2018-07-10T02:13:55.585Z,0.57
2018-07-10T02:16:23.904Z,0.62
2018-07-10T02:21:26.859Z,1.00
2018-07-10T02:23:55.120Z,0.70
2018-07-10T02:26:26.641Z,0.30
2018-07-10T02:28:55.531Z,0.50
2018-07-10T02:31:23.848Z,0.45
2018-07-10T02:33:52.938Z,0.40
2018-07-10T02:36:22.212Z,0.90
2018-07-10T02:38:58.609Z,0.70
2018-07-10T02:41:26.888Z,0.57
2018-07-10T02:44:00.975Z,0.40
2018-07-10T02:46:31.080Z,0.95
2018-07-10T02:49:07.679Z,0.50
2018-07-10T02:51:36.403Z,0.60
2018-07-10T02:54:04.647Z,0.80
2018-07-10T02:56:32.908Z,0.90
2018-07-10T02:59:01.879Z,0.72
2018-07-10T03:01:30.104Z,0.65
2018-07-10T03:03:59.444Z,0.47
2018-07-10T03:06:27.664Z,1.02
2018-07-10T03:08:56.416Z,0.72
2018-07-10T03:11:24.817Z,0.57
2018-07-10T03:13:53.079Z,0.70
2018-07-10T03:16:21.278Z,0.85
2018-07-10T03:18:50.328Z,0.40
2018-07-10T03:21:18.550Z,0.40
2018-07-10T03:23:46.801Z,0.60
2018-07-10T03:26:15.102Z,0.70
2018-07-10T03:28:43.356Z,0.68
2018-07-10T03:31:11.918Z,0.75
2018-07-10T03:33:40.515Z,1.00
2018-07-10T03:36:08.738Z,0.65
2018-07-10T03:38:37.006Z,1.05
2018-07-10T03:41:05.629Z,1.10
2018-07-10T03:43:34.118Z,1.25
2018-07-10T03:46:02.329Z,0.93
2018-07-10T03:48:30.579Z,0.80
2018-07-10T03:50:59.188Z,1.10
2018-07-10T03:53:27.810Z,0.60
2018-07-10T03:55:56.310Z,0.80
2018-07-10T03:58:24.695Z,0.62
2018-07-10T04:00:53.227Z,1.05
2018-07-10T04:03:27.287Z,0.98
2018-07-10T04:05:55.925Z,0.68
2018-07-10T04:08:24.291Z,1.25
2018-07-10T04:10:52.573Z,1.20
2018-07-10T04:13:21.406Z,0.80
2018-07-10T04:15:54.230Z,0.72
2018-07-10T04:18:25.708Z,1.10
2018-07-10T04:21:35.982Z,0.80
2018-07-10T04:24:19.875Z,1.42
2018-07-10T04:27:29.431Z,1.22
2018-07-10T04:30:05.722Z,1.17
2018-07-10T04:32:35.480Z,1.30
2018-07-10T04:35:03.722Z,1.20
2018-07-10T04:37:32.450Z,0.90
2018-07-10T04:40:01.456Z,1.35
2018-07-10T04:42:33.591Z,1.00
2018-07-10T04:45:11.605Z,1.05
2018-07-10T04:47:47.580Z,1.40
2018-07-10T04:50:19.666Z,1.35
2018-07-10T04:52:52.229Z,1.70
2018-07-10T04:55:20.494Z,1.47
2018-07-10T04:57:57.060Z,0.90
2018-07-10T05:00:25.854Z,1.30
2018-07-10T05:02:55.661Z,1.20
2018-07-10T05:05:24.622Z,1.22
2018-07-10T05:07:53.359Z,0.60
2018-07-10T05:10:21.582Z,1.10
2018-07-10T05:12:49.802Z,1.40
2018-07-10T05:15:18.222Z,1.07
2018-07-10T05:17:50.897Z,1.85
2018-07-10T05:20:20.272Z,1.02
2018-07-10T05:22:49.100Z,0.80
2018-07-10T05:25:17.329Z,1.10
2018-07-10T05:27:45.584Z,1.20
2018-07-10T05:30:14.868Z,1.62
2018-07-10T05:32:43.116Z,1.10
2018-07-10T05:35:11.426Z,1.10
2018-07-10T05:37:39.653Z,1.20
2018-07-10T05:40:10.722Z,1.12
2018-07-10T05:42:48.037Z,1.22
2018-07-10T05:45:22.807Z,1.25
2018-07-10T05:47:58.302Z,1.40
2018-07-10T05:50:29.438Z,1.82
2018-07-10T05:52:57.693Z,1.07
2018-07-10T05:55:28.475Z,1.50
2018-07-10T05:57:57.883Z,1.32
2018-07-10T06:00:26.448Z,1.50
2018-07-10T06:02:55.236Z,1.00
2018-07-10T06:05:25.027Z,1.70
2018-07-10T06:07:54.177Z,1.22
2018-07-10T06:10:23.724Z,1.15
2018-07-10T06:12:52.083Z,1.42
2018-07-10T06:15:20.312Z,1.60
2018-07-10T06:17:49.279Z,1.35
2018-07-10T06:20:19.005Z,1.50
2018-07-10T06:22:47.232Z,1.40
2018-07-10T06:25:15.537Z,1.57
2018-07-10T06:27:51.880Z,1.25
2018-07-10T06:30:20.548Z,1.22
2018-07-10T06:33:32.803Z,1.30
2018-07-10T06:36:18.583Z,1.37
2018-07-10T06:38:48.442Z,1.10
2018-07-10T06:41:17.481Z,1.85
2018-07-10T06:43:48.463Z,2.02
2018-07-10T06:46:17.508Z,1.40
2018-07-10T06:48:48.766Z,1.80
2018-07-10T06:51:18.769Z,1.62
2018-07-10T06:53:48.286Z,2.00
2018-07-10T06:56:26.000Z,1.95
2018-07-10T06:58:55.259Z,1.52
2018-07-10T07:01:24.351Z,1.80
2018-07-10T07:03:56.385Z,2.40
2018-07-10T07:06:25.717Z,1.52
2018-07-10T07:08:54.315Z,1.80
2018-07-10T07:11:22.556Z,1.87
2018-07-10T07:13:50.796Z,1.85
2018-07-10T07:16:19.043Z,1.75
2018-07-10T07:18:47.266Z,1.82
2018-07-10T07:21:15.493Z,1.80
2018-07-10T07:23:43.775Z,1.70
2018-07-10T07:26:12.009Z,1.90
2018-07-10T07:28:40.437Z,1.95
2018-07-10T07:31:08.702Z,2.52
2018-07-10T07:33:36.961Z,2.02
2018-07-10T07:36:05.261Z,1.80
2018-07-10T07:38:33.501Z,2.55
2018-07-10T07:41:01.888Z,1.80
2018-07-10T07:43:30.117Z,2.35
2018-07-10T07:45:58.084Z,1.85
2018-07-10T07:48:26.348Z,2.00
2018-07-10T07:50:54.570Z,1.80
2018-07-10T07:53:22.831Z,1.98
2018-07-10T07:55:51.263Z,1.75
2018-07-10T07:58:19.523Z,1.67
2018-07-10T08:00:47.817Z,1.47
2018-07-10T08:03:16.048Z,2.27
2018-07-10T08:05:44.336Z,2.20
2018-07-10T08:08:12.637Z,2.40
2018-07-10T08:10:41.191Z,2.42
2018-07-10T08:13:09.453Z,1.70
2018-07-10T08:15:37.658Z,2.12
2018-07-10T08:18:05.997Z,2.33
2018-07-10T08:20:34.252Z,2.27
2018-07-10T08:23:02.932Z,2.87
2018-07-10T08:25:31.186Z,3.47
2018-07-10T08:27:59.458Z,2.37
2018-07-10T08:30:27.941Z,2.77
2018-07-10T08:32:56.495Z,2.70
2018-07-10T08:35:24.751Z,3.12
2018-07-10T08:37:53.290Z,2.25
2018-07-10T08:40:21.510Z,2.62
2018-07-10T08:42:49.834Z,2.50
2018-07-10T08:45:19.101Z,2.75
2018-07-10T08:47:48.397Z,3.47
2018-07-10T08:50:17.973Z,3.05
2018-07-10T08:52:48.090Z,2.77
2018-07-10T08:55:18.883Z,3.33
2018-07-10T08:57:48.256Z,4.05
2018-07-10T09:00:17.038Z,3.08
2018-07-10T09:02:45.285Z,3.62
2018-07-10T09:05:16.571Z,3.60
2018-07-10T09:07:44.825Z,3.87
2018-07-10T09:10:13.055Z,3.85
2018-07-10T09:12:41.310Z,2.90
2018-07-10T09:15:09.561Z,3.00
2018-07-10T09:17:38.103Z,4.22
2018-07-10T09:20:06.335Z,3.65
2018-07-10T09:22:34.583Z,2.92
2018-07-10T09:25:03.983Z,3.80
2018-07-10T09:27:32.233Z,5.03
2018-07-10T09:30:00.488Z,3.37
2018-07-10T09:32:34.059Z,4.17
2018-07-10T09:35:02.304Z,4.83
2018-07-10T09:37:36.068Z,4.12
2018-07-10T09:40:19.461Z,3.27
2018-07-10T09:42:53.668Z,3.90
2018-07-10T09:45:22.744Z,4.45
2018-07-10T09:47:50.989Z,3.90
2018-07-10T09:50:19.209Z,2.83
2018-07-10T09:52:47.471Z,3.15
2018-07-10T09:55:15.695Z,3.42
2018-07-10T09:57:44.040Z,3.87
2018-07-10T10:00:12.282Z,3.83
2018-07-10T10:02:40.506Z,3.60
2018-07-10T10:05:08.737Z,3.35
2018-07-10T10:07:37.043Z,3.22
2018-07-10T10:10:05.677Z,3.20
2018-07-10T10:12:34.189Z,4.42
2018-07-10T10:15:02.455Z,3.30
2018-07-10T10:17:31.117Z,3.50
2018-07-10T10:19:59.798Z,3.45
2018-07-10T10:22:29.942Z,3.92
2018-07-10T10:24:58.817Z,4.08
2018-07-10T10:27:29.134Z,3.00
2018-07-10T10:29:57.864Z,3.83
2018-07-10T10:33:00.176Z,3.42
2018-07-10T10:35:29.530Z,4.97
2018-07-10T10:37:59.406Z,4.75
2018-07-10T10:40:28.830Z,4.12
2018-07-10T10:42:57.401Z,3.92
2018-07-10T10:45:26.301Z,4.67
2018-07-10T10:47:56.007Z,4.47
2018-07-10T10:50:26.499Z,4.80
2018-07-10T10:52:56.157Z,4.42
2018-07-10T10:55:24.439Z,6.12
2018-07-10T10:57:53.337Z,4.33
2018-07-10T11:00:21.721Z,5.47
2018-07-10T11:02:53.245Z,4.50
2018-07-10T11:05:21.981Z,5.08
2018-07-10T11:07:50.372Z,5.55
2018-07-10T11:10:19.210Z,5.50
2018-07-10T11:12:51.170Z,5.78
2018-07-10T11:15:21.079Z,6.05
2018-07-10T11:18:03.072Z,6.10
2018-07-10T11:20:40.203Z,5.97
2018-07-10T11:23:09.500Z,6.87
2018-07-10T11:25:39.919Z,6.53
2018-07-10T11:28:10.332Z,7.42
2018-07-10T11:30:38.752Z,7.58
2018-07-10T11:33:08.595Z,5.97
2018-07-10T11:35:37.327Z,7.00
2018-07-10T11:38:10.537Z,8.03
2018-07-10T11:40:42.885Z,7.55
2018-07-10T11:43:11.760Z,8.73
2018-07-10T11:45:40.127Z,9.10
2018-07-10T11:48:09.399Z,7.33
2018-07-10T11:50:37.638Z,7.47
2018-07-10T11:53:05.901Z,7.87
2018-07-10T11:55:35.374Z,7.50
2018-07-10T11:58:05.079Z,7.62
2018-07-10T12:00:33.629Z,8.78
2018-07-10T12:03:04.530Z,7.28
2018-07-10T12:05:35.090Z,8.38
2018-07-10T12:08:04.096Z,8.68
2018-07-10T12:10:33.794Z,9.50
2018-07-10T12:13:02.125Z,8.45
2018-07-10T12:15:30.403Z,8.85
2018-07-10T12:17:59.631Z,8.80
2018-07-10T12:20:36.574Z,8.60
2018-07-10T12:23:06.054Z,8.03
2018-07-10T12:25:36.996Z,8.00
2018-07-10T12:28:06.756Z,7.53
2018-07-10T12:30:35.026Z,8.53
2018-07-10T12:33:04.221Z,9.20
2018-07-10T12:35:32.504Z,6.33
2018-07-10T12:38:00.837Z,8.70
2018-07-10T12:40:29.301Z,7.60
2018-07-10T12:42:57.565Z,8.00
2018-07-10T12:45:25.848Z,7.55
2018-07-10T12:47:53.881Z,9.25
2018-07-10T12:50:22.443Z,8.30
2018-07-10T12:52:50.688Z,8.83
2018-07-10T12:55:20.028Z,9.25
2018-07-10T12:57:48.913Z,9.45
2018-07-10T13:00:17.204Z,8.48
2018-07-10T13:02:49.037Z,8.45
2018-07-10T13:05:18.317Z,10.13
2018-07-10T13:07:46.805Z,9.33
2018-07-10T13:10:15.107Z,7.10
2018-07-10T13:12:43.786Z,9.05
2018-07-10T13:15:12.352Z,7.53
2018-07-10T13:17:42.284Z,9.65
2018-07-10T13:20:10.578Z,9.18
2018-07-10T13:22:38.859Z,9.05
2018-07-10T13:25:07.241Z,9.03
2018-07-10T13:27:35.625Z,9.65
2018-07-10T13:30:03.982Z,8.00
2018-07-10T13:32:32.253Z,9.25
2018-07-10T13:35:01.511Z,7.80
2018-07-10T13:37:33.090Z,6.80
2018-07-10T13:40:05.516Z,7.62
2018-07-10T13:42:42.374Z,10.35
2018-07-10T13:45:10.648Z,7.60
2018-07-10T13:47:40.907Z,8.80
2018-07-10T13:50:09.478Z,9.10
2018-07-10T13:52:42.252Z,8.80
2018-07-10T13:55:11.546Z,9.73
2018-07-10T13:57:43.486Z,9.15
2018-07-10T14:00:12.054Z,9.35
2018-07-10T14:02:41.039Z,7.95
2018-07-10T14:05:09.680Z,6.58
2018-07-10T14:07:37.999Z,8.58
2018-07-10T14:10:06.242Z,10.38
2018-07-10T14:12:34.521Z,8.83
2018-07-10T14:15:03.070Z,10.45
2018-07-10T14:17:31.310Z,8.40
2018-07-10T14:19:59.629Z,8.20
2018-07-10T14:22:28.644Z,9.45
2018-07-10T14:24:56.888Z,10.35
2018-07-10T14:27:25.143Z,9.25
2018-07-10T14:29:53.701Z,8.80
2018-07-10T14:32:21.969Z,10.50
2018-07-10T14:34:50.166Z,9.15
2018-07-10T14:37:20.013Z,7.97
2018-07-10T14:39:48.658Z,7.92
2018-07-10T14:42:17.145Z,9.43
2018-07-10T14:44:45.643Z,7.20
2018-07-10T14:47:14.513Z,8.05
2018-07-10T14:49:42.835Z,9.98
2018-07-10T14:52:11.389Z,7.85
2018-07-10T14:54:48.541Z,8.88
2018-07-10T14:57:29.492Z,11.28
2018-07-10T14:59:57.868Z,9.28
2018-07-10T15:02:26.138Z,9.65
2018-07-10T15:04:54.482Z,9.68
2018-07-10T15:07:22.729Z,8.05
2018-07-10T15:09:51.013Z,9.80
2018-07-10T15:12:19.241Z,11.35
2018-07-10T15:14:47.557Z,10.58
2018-07-10T15:17:21.047Z,9.15
2018-07-10T15:19:49.314Z,8.55
2018-07-10T15:22:17.849Z,9.30
2018-07-10T15:24:46.088Z,7.67
2018-07-10T15:27:14.358Z,8.18
2018-07-10T15:29:42.566Z,8.73
2018-07-10T15:32:10.841Z,9.13
2018-07-10T15:34:39.236Z,9.48
2018-07-10T15:37:07.531Z,9.23
2018-07-10T15:39:36.108Z,9.50
2018-07-10T15:42:04.917Z,9.50
2018-07-10T15:44:33.445Z,7.75
2018-07-10T15:47:01.704Z,8.55
2018-07-10T15:49:30.140Z,7.78
2018-07-10T15:51:58.365Z,9.08
2018-07-10T15:54:26.608Z,8.73
2018-07-10T15:56:54.884Z,8.10
2018-07-10T15:59:23.154Z,7.00
2018-07-10T16:01:51.406Z,7.03
2018-07-10T16:04:19.665Z,7.10
2018-07-10T16:06:48.139Z,5.67
2018-07-10T16:09:18.905Z,6.03
2018-07-10T16:11:49.587Z,7.30
2018-07-10T16:14:17.837Z,5.55
2018-07-10T16:16:47.153Z,6.35
2018-07-10T16:19:18.269Z,5.33
2018-07-10T16:21:51.069Z,6.05
2018-07-10T16:24:20.403Z,6.03
2018-07-10T16:26:48.621Z,5.35
2018-07-10T16:29:19.138Z,5.58
2018-07-10T16:31:48.700Z,5.83
2018-07-10T16:34:16.916Z,5.72
2018-07-10T16:36:45.154Z,5.35
2018-07-10T16:39:13.370Z,7.72
2018-07-10T16:41:47.255Z,5.72
2018-07-10T16:44:15.518Z,4.72
2018-07-10T16:46:47.795Z,4.97
2018-07-10T16:49:24.628Z,4.87
2018-07-10T16:52:00.112Z,5.65
2018-07-10T16:54:28.358Z,6.05
2018-07-10T16:56:56.612Z,5.28
2018-07-10T16:59:25.751Z,4.85
2018-07-10T17:01:54.137Z,5.35
2018-07-10T17:04:22.497Z,4.78
2018-07-10T17:06:50.745Z,4.95
2018-07-10T17:09:19.168Z,4.87
2018-07-10T17:11:47.427Z,4.87
2018-07-10T17:14:15.691Z,5.05
2018-07-10T17:16:43.979Z,4.60
2018-07-10T17:19:12.272Z,4.85
2018-07-10T17:21:40.524Z,4.42
2018-07-10T17:24:08.861Z,4.87
2018-07-10T17:26:37.671Z,4.53
2018-07-10T17:29:11.329Z,5.00
2018-07-10T17:31:39.917Z,3.83
2018-07-10T17:34:08.376Z,3.83
2018-07-10T17:36:36.638Z,4.60
2018-07-10T17:39:05.737Z,4.15
2018-07-10T17:41:35.870Z,5.00
2018-07-10T17:44:06.798Z,3.77
2018-07-10T17:46:35.048Z,3.22
2018-07-10T17:49:03.911Z,3.70
2018-07-10T17:51:32.238Z,3.70
2018-07-10T17:54:00.560Z,2.70
2018-07-10T17:56:34.745Z,3.72
2018-07-10T17:59:05.903Z,3.22
2018-07-10T18:01:35.111Z,3.10
2018-07-10T18:04:03.406Z,3.27
2018-07-10T18:06:33.504Z,3.50
2018-07-10T18:09:02.068Z,2.35
2018-07-10T18:11:30.321Z,2.10
2018-07-10T18:13:58.598Z,4.17
2018-07-10T18:16:31.171Z,3.40
2018-07-10T18:18:59.336Z,3.17
2018-07-10T18:21:27.468Z,3.08
2018-07-10T18:23:55.746Z,3.95
2018-07-10T18:26:24.114Z,3.75
2018-07-10T18:28:52.344Z,2.58
2018-07-10T18:31:20.606Z,3.45
2018-07-10T18:33:48.909Z,3.02
2018-07-10T18:36:17.503Z,3.17
2018-07-10T18:38:48.245Z,3.83
2018-07-10T18:41:16.491Z,3.25
2018-07-10T18:43:46.188Z,2.90
2018-07-10T18:46:15.148Z,3.02
2018-07-10T18:48:44.606Z,2.60
2018-07-10T18:51:12.923Z,3.33
2018-07-10T18:53:42.506Z,3.05
2018-07-10T18:56:11.764Z,2.95
2018-07-10T18:59:14.433Z,3.15
2018-07-10T19:01:56.140Z,2.90
2018-07-10T19:04:26.086Z,3.08
2018-07-10T19:06:54.388Z,3.20
2018-07-10T19:09:31.089Z,3.00
2018-07-10T19:11:59.367Z,3.30
2018-07-10T19:14:27.612Z,2.98
2018-07-10T19:16:55.986Z,3.05
2018-07-10T19:19:24.332Z,3.50
2018-07-10T19:21:56.656Z,3.62
2018-07-10T19:24:26.598Z,2.50
2018-07-10T19:26:57.936Z,2.35
2018-07-10T19:29:36.882Z,3.00
2018-07-10T19:32:05.697Z,2.37
2018-07-10T19:34:33.916Z,2.00
2018-07-10T19:37:02.172Z,3.08
2018-07-10T19:39:30.414Z,2.62
2018-07-10T19:41:58.652Z,2.80
2018-07-10T19:44:27.912Z,2.52
2018-07-10T19:46:56.168Z,2.70
2018-07-10T19:49:24.725Z,2.10
2018-07-10T19:51:53.330Z,2.42
2018-07-10T19:54:21.890Z,2.80
2018-07-10T19:56:50.137Z,2.60
2018-07-10T19:59:19.706Z,2.20
2018-07-10T20:01:51.900Z,2.80
2018-07-10T20:04:47.000Z,2.75
2018-07-10T20:07:24.953Z,2.52
2018-07-10T20:09:55.596Z,2.67
2018-07-10T20:12:28.972Z,2.55
2018-07-10T20:16:07.317Z,2.55
2018-07-10T20:21:00.154Z,2.42
2018-07-10T20:23:30.930Z,2.70
2018-07-10T20:26:15.968Z,2.20
2018-07-10T20:28:47.776Z,2.45
2018-07-10T20:31:54.712Z,2.47
2018-07-10T20:35:32.580Z,2.67
2018-07-10T20:38:07.951Z,3.12
2018-07-10T20:40:43.502Z,2.67
2018-07-10T20:43:23.317Z,3.95
2018-07-10T20:45:56.731Z,3.10
2018-07-10T20:49:03.657Z,2.50
2018-07-10T20:51:39.263Z,3.35
2018-07-10T20:54:25.211Z,2.60
2018-07-10T20:57:07.714Z,2.08
2018-07-10T20:59:45.037Z,3.37
2018-07-10T21:03:29.452Z,2.77
2018-07-10T21:06:09.638Z,2.67
2018-07-10T21:08:53.212Z,2.98
2018-07-10T21:11:25.082Z,3.60
2018-07-10T21:14:07.044Z,2.60
2018-07-10T21:17:06.340Z,3.17
2018-07-10T21:19:51.410Z,2.98
2018-07-10T21:22:39.516Z,2.40
2018-07-10T21:25:17.814Z,2.77
2018-07-10T21:28:01.585Z,3.00
2018-07-10T21:30:37.555Z,3.20
2018-07-10T21:34:13.921Z,3.02
2018-07-10T21:36:50.650Z,3.15
2018-07-10T21:41:48.151Z,3.27
2018-07-10T21:46:27.648Z,3.17
2018-07-10T21:49:10.460Z,3.42
2018-07-10T21:51:39.486Z,2.70
2018-07-10T21:54:08.636Z,3.50
2018-07-10T21:56:37.119Z,3.60
2018-07-10T21:59:06.020Z,3.55
2018-07-10T22:01:47.367Z,3.40
2018-07-10T22:04:21.486Z,3.60
2018-07-10T22:06:52.188Z,4.12
2018-07-10T22:09:21.215Z,4.33
2018-07-10T22:11:50.026Z,4.00
2018-07-10T22:14:18.559Z,3.92
2018-07-10T22:16:46.970Z,4.25
2018-07-10T22:19:20.823Z,4.78
2018-07-10T22:21:49.078Z,3.75
2018-07-10T22:24:18.027Z,4.17
2018-07-10T22:26:46.884Z,3.52
2018-07-10T22:29:15.182Z,3.85
2018-07-10T22:31:49.075Z,3.62
2018-07-10T22:34:18.386Z,4.87
2018-07-10T22:36:50.301Z,3.83
2018-07-10T22:39:21.493Z,2.98
2018-07-10T22:41:54.563Z,4.60
2018-07-10T22:44:29.236Z,2.80
2018-07-10T22:47:01.960Z,3.30
2018-07-10T22:49:33.630Z,3.67
2018-07-10T22:52:02.817Z,3.65
2018-07-10T22:54:37.582Z,4.10
2018-07-10T22:57:09.190Z,3.95
2018-07-10T22:59:37.422Z,2.50
2018-07-10T23:02:06.116Z,3.77
2018-07-10T23:04:34.355Z,3.70
2018-07-10T23:07:02.569Z,2.95
2018-07-10T23:09:30.825Z,3.80
2018-07-10T23:11:59.057Z,4.17
2018-07-10T23:14:27.281Z,4.80
2018-07-10T23:16:56.349Z,3.70
2018-07-10T23:19:24.631Z,4.08
2018-07-10T23:21:52.947Z,3.92
2018-07-10T23:24:21.184Z,4.60
2018-07-10T23:26:49.444Z,4.15
2018-07-10T23:29:21.111Z,5.33
2018-07-10T23:31:49.572Z,5.30
2018-07-10T23:34:19.912Z,5.22
2018-07-10T23:36:52.053Z,3.70
2018-07-10T23:39:24.206Z,4.15
2018-07-10T23:41:55.155Z,5.78
2018-07-10T23:44:29.562Z,4.05
2018-07-10T23:47:02.341Z,5.58
2018-07-10T23:49:30.471Z,5.58
2018-07-10T23:52:10.017Z,5.12
2018-07-10T23:54:38.249Z,6.05
2018-07-10T23:57:06.479Z,6.05
2018-07-10T23:59:34.976Z,4.85
